createdAt,value
2024-04-24T00:00:33.563Z,99873.31
2024-04-24T00:03:06.834Z,99871.59
2024-04-24T00:05:36.462Z,99866.41
2024-04-24T00:08:03.906Z,99866.34
2024-04-24T00:10:31.136Z,99860.31
2024-04-24T00:12:58.146Z,99862.88
2024-04-24T00:15:25.194Z,99850.00
2024-04-24T00:17:52.334Z,99848.28
2024-04-24T00:20:19.793Z,99851.69
2024-04-24T00:22:49.026Z,99848.31
2024-04-24T00:25:16.106Z,99842.22
2024-04-24T00:27:43.198Z,99843.06
2024-04-24T00:30:14.483Z,99833.56
2024-04-24T00:32:41.920Z,99837.78
2024-04-24T00:35:09.086Z,99842.91
2024-04-24T00:37:39.145Z,99842.00
2024-04-24T00:40:09.269Z,99841.94
2024-04-24T00:42:36.353Z,99848.75
2024-04-24T00:45:03.598Z,99846.97
2024-04-24T00:47:35.852Z,99848.59
2024-04-24T00:50:03.407Z,99841.66
2024-04-24T00:52:30.858Z,99840.81
2024-04-24T00:54:58.624Z,99844.22
2024-04-24T00:57:26.216Z,99847.59
2024-04-24T00:59:53.622Z,99839.91
2024-04-24T01:02:20.832Z,99843.28
2024-04-24T01:04:48.575Z,99841.53
2024-04-24T01:07:15.805Z,99846.66
2024-04-24T01:09:42.795Z,99846.66
2024-04-24T01:12:09.910Z,99846.69
2024-04-24T01:14:37.073Z,99844.13
2024-04-24T01:17:07.035Z,99841.53
2024-04-24T01:19:47.459Z,99839.81
2024-04-24T01:22:33.130Z,99850.13
2024-04-24T01:25:42.368Z,99844.09
2024-04-24T01:28:09.434Z,99852.47
2024-04-24T01:30:36.424Z,99855.78
2024-04-24T01:33:04.179Z,99854.03
2024-04-24T01:35:31.618Z,99854.03
2024-04-24T01:37:58.590Z,99850.53
2024-04-24T01:40:26.020Z,99854.78
2024-04-24T01:42:52.972Z,99853.03
2024-04-24T01:45:19.977Z,99851.41
2024-04-24T01:47:47.177Z,99856.66
2024-04-24T01:50:14.476Z,99858.31
2024-04-24T01:52:41.485Z,99868.66
2024-04-24T01:55:08.746Z,99860.97
2024-04-24T01:57:35.746Z,99865.22
2024-04-24T02:00:02.735Z,99858.25
2024-04-24T02:02:31.618Z,99851.38
2024-04-24T02:04:58.864Z,99865.94
2024-04-24T02:07:25.863Z,99863.47
2024-04-24T02:09:52.850Z,99868.66
2024-04-24T02:12:19.931Z,99869.47
2024-04-24T02:14:47.041Z,99880.59
2024-04-24T02:17:14.122Z,99880.56
2024-04-24T02:19:42.648Z,99889.09
2024-04-24T02:22:10.780Z,99885.69
2024-04-24T02:24:57.363Z,99886.63
2024-04-24T02:27:24.350Z,99888.28
2024-04-24T02:29:56.132Z,99891.94
2024-04-24T02:32:24.235Z,99898.84
2024-04-24T02:34:51.437Z,99897.06
2024-04-24T02:37:18.554Z,99901.44
2024-04-24T02:39:45.709Z,99907.34
2024-04-24T02:42:12.694Z,99911.59
2024-04-24T02:44:39.645Z,99908.97
2024-04-24T02:47:06.826Z,99908.13
2024-04-24T02:49:33.839Z,99908.94
2024-04-24T02:52:01.163Z,99911.84
2024-04-24T02:54:28.514Z,99917.22
2024-04-24T02:56:55.520Z,99914.06
2024-04-24T02:59:22.759Z,99915.06
2024-04-24T03:01:49.857Z,99915.09
2024-04-24T03:04:16.905Z,99927.91
2024-04-24T03:06:44.777Z,99923.63
2024-04-24T03:09:12.861Z,99929.56
2024-04-24T03:11:40.177Z,99931.38
2024-04-24T03:14:07.951Z,99929.00
2024-04-24T03:16:35.408Z,99933.38
2024-04-24T03:19:02.674Z,99928.31
2024-04-24T03:21:29.774Z,99936.06
2024-04-24T03:23:56.816Z,99933.22
2024-04-24T03:26:23.989Z,99945.19
2024-04-24T03:28:51.162Z,99943.56
2024-04-24T03:31:18.353Z,99948.75
2024-04-24T03:33:45.452Z,99943.69
2024-04-24T03:36:12.708Z,99948.00
2024-04-24T03:38:39.780Z,99944.56
2024-04-24T03:41:06.850Z,99948.81
2024-04-24T03:43:33.877Z,99942.00
2024-04-24T03:46:01.614Z,99935.25
2024-04-24T03:48:28.686Z,99943.91
2024-04-24T03:50:55.777Z,99938.84
2024-04-24T03:53:23.970Z,99949.16
2024-04-24T03:55:51.933Z,99938.09
2024-04-24T03:58:19.078Z,99940.66
2024-04-24T04:00:46.647Z,99937.13
2024-04-24T04:03:13.862Z,99930.34
2024-04-24T04:05:41.056Z,99924.31
2024-04-24T04:08:08.217Z,99931.16
2024-04-24T04:10:35.306Z,99929.47
2024-04-24T04:13:03.435Z,99935.47
2024-04-24T04:15:30.546Z,99929.44
2024-04-24T04:17:57.936Z,99921.69
2024-04-24T04:20:25.199Z,99925.13
2024-04-24T04:22:54.768Z,99917.50
2024-04-24T04:25:21.912Z,99919.28
2024-04-24T04:27:48.929Z,99920.13
2024-04-24T04:30:16.514Z,99917.56
2024-04-24T04:32:43.854Z,99919.41
2024-04-24T04:35:11.020Z,99919.47
2024-04-24T04:37:39.553Z,99909.28
2024-04-24T04:40:07.732Z,99902.53
2024-04-24T04:42:34.925Z,99910.41
2024-04-24T04:45:02.146Z,99907.97
2024-04-24T04:47:31.973Z,99907.28
2024-04-24T04:49:59.157Z,99909.03
2024-04-24T04:52:26.349Z,99905.47
2024-04-24T04:54:53.569Z,99901.94
2024-04-24T04:57:20.663Z,99898.47
2024-04-24T04:59:47.776Z,99901.00
2024-04-24T05:02:14.894Z,99899.34
2024-04-24T05:04:41.963Z,99900.25
2024-04-24T05:07:09.221Z,99902.00
2024-04-24T05:09:36.891Z,99902.13
2024-04-24T05:12:04.242Z,99903.94
2024-04-24T05:14:31.458Z,99898.84
2024-04-24T05:16:58.722Z,99889.44
2024-04-24T05:19:25.852Z,99887.88
2024-04-24T05:21:52.976Z,99885.31
2024-04-24T05:24:20.050Z,99894.78
2024-04-24T05:27:05.442Z,99885.34
2024-04-24T05:29:32.526Z,99880.25
2024-04-24T05:31:59.640Z,99873.41
2024-04-24T05:34:26.744Z,99867.47
2024-04-24T05:36:53.842Z,99865.03
2024-04-24T05:39:20.968Z,99867.69
2024-04-24T05:41:48.049Z,99855.69
2024-04-24T05:44:15.193Z,99834.28
2024-04-24T05:46:42.228Z,99859.31
2024-04-24T05:49:09.361Z,99805.19
2024-04-24T05:51:36.430Z,99813.81
2024-04-24T05:54:03.423Z,99812.09
2024-04-24T05:56:30.532Z,99814.69
2024-04-24T05:58:57.682Z,99830.16
2024-04-24T06:01:24.694Z,99753.59
2024-04-24T06:03:51.771Z,99737.25
2024-04-24T06:06:18.806Z,99688.25
2024-04-24T06:08:45.875Z,99693.41
2024-04-24T06:11:16.222Z,99703.78
2024-04-24T06:13:43.605Z,99717.56
2024-04-24T06:16:10.709Z,99715.84
2024-04-24T06:18:38.043Z,99747.69
2024-04-24T06:21:05.479Z,99779.50
2024-04-24T06:23:32.628Z,99785.56
2024-04-24T06:25:59.711Z,99759.78
2024-04-24T06:28:26.765Z,99760.66
2024-04-24T06:30:53.827Z,99772.72
2024-04-24T06:33:20.932Z,99776.19
2024-04-24T06:35:48.016Z,99779.66
2024-04-24T06:38:15.132Z,99776.28
2024-04-24T06:40:42.425Z,99819.44
2024-04-24T06:43:10.335Z,99814.38
2024-04-24T06:45:38.220Z,99823.06
2024-04-24T06:48:06.545Z,99826.59
2024-04-24T06:50:33.957Z,99784.44
2024-04-24T06:53:01.194Z,99732.75
2024-04-24T06:55:28.358Z,99785.28
2024-04-24T06:57:58.476Z,99758.63
2024-04-24T07:00:28.845Z,99754.34
2024-04-24T07:02:55.890Z,99752.63
2024-04-24T07:05:23.364Z,99794.00
2024-04-24T07:07:50.483Z,99755.31
2024-04-24T07:10:17.600Z,99767.41
2024-04-24T07:12:46.742Z,99765.69
2024-04-24T07:15:15.647Z,99750.22
2024-04-24T07:17:44.561Z,99741.63
2024-04-24T07:20:11.963Z,99738.16
2024-04-24T07:22:39.200Z,99726.97
2024-04-24T07:25:06.331Z,99723.53
2024-04-24T07:27:34.031Z,99714.91
2024-04-24T07:30:01.154Z,99709.75
2024-04-24T07:32:28.444Z,99712.38
2024-04-24T07:34:55.767Z,99708.97
2024-04-24T07:37:22.903Z,99715.88
2024-04-24T07:39:50.003Z,99694.31
2024-04-24T07:42:17.408Z,99718.47
2024-04-24T07:44:44.861Z,99726.25
2024-04-24T07:47:12.572Z,99714.19
2024-04-24T07:49:39.736Z,99672.81
2024-04-24T07:52:06.813Z,99659.91
2024-04-24T07:54:33.782Z,99677.13
2024-04-24T07:57:00.755Z,99693.50
2024-04-24T07:59:27.899Z,99705.59
2024-04-24T08:05:45.913Z,99604.81
2024-04-24T08:08:13.739Z,99591.91
2024-04-24T08:10:40.777Z,99616.03
2024-04-24T08:13:07.826Z,99591.03
2024-04-24T08:15:34.783Z,99599.66
2024-04-24T08:18:01.888Z,99607.44
2024-04-24T08:20:29.029Z,99598.81
2024-04-24T08:22:56.113Z,99610.88
2024-04-24T08:25:23.536Z,99563.41
2024-04-24T08:27:52.108Z,99561.69
2024-04-24T08:30:19.292Z,99596.19
2024-04-24T08:32:46.373Z,99596.16
2024-04-24T08:35:13.616Z,99575.47
2024-04-24T08:37:40.640Z,99580.63
2024-04-24T08:40:08.153Z,99540.88
2024-04-24T08:42:35.411Z,99530.47
2024-04-24T08:45:02.560Z,99543.38
2024-04-24T08:47:32.759Z,99499.31
2024-04-24T08:50:00.446Z,99495.03
2024-04-24T08:52:28.069Z,99432.97
2024-04-24T08:54:59.068Z,99419.19
2024-04-24T08:57:27.917Z,99433.81
2024-04-24T09:00:01.100Z,99423.44
2024-04-24T09:02:34.086Z,99403.59
2024-04-24T09:05:04.846Z,99430.31
2024-04-24T09:07:33.886Z,99414.78
2024-04-24T09:10:02.638Z,99430.28
2024-04-24T09:12:32.993Z,99435.44
2024-04-24T09:15:00.293Z,99435.34
2024-04-24T09:17:27.600Z,99389.50
2024-04-24T09:19:54.644Z,99338.59
2024-04-24T09:22:21.759Z,99370.50
2024-04-24T09:24:56.791Z,99358.38
2024-04-24T09:27:24.973Z,99354.88
2024-04-24T09:29:52.055Z,99337.56
2024-04-24T09:32:19.085Z,99323.69
2024-04-24T09:34:48.283Z,99356.47
2024-04-24T09:37:19.824Z,99334.88
2024-04-24T09:39:48.460Z,99339.97
2024-04-24T09:42:15.667Z,99319.22
2024-04-24T09:44:47.105Z,99298.38
2024-04-24T09:47:14.428Z,99312.13
2024-04-24T09:49:50.181Z,99319.84
2024-04-24T09:52:17.322Z,99305.03
2024-04-24T09:54:46.733Z,99287.69
2024-04-24T09:57:15.197Z,99272.88
2024-04-24T09:59:55.334Z,99199.22
2024-04-24T10:02:26.983Z,99179.16
2024-04-24T10:04:58.050Z,99150.53
2024-04-24T10:07:26.986Z,99200.47
2024-04-24T10:09:54.888Z,99156.03
2024-04-24T10:12:33.991Z,99166.94
2024-04-24T10:15:13.143Z,99177.38
2024-04-24T10:17:41.363Z,99123.47
2024-04-24T10:20:19.112Z,98964.06
2024-04-24T10:22:51.565Z,98807.03
2024-04-24T10:25:21.803Z,98775.03
2024-04-24T10:27:51.699Z,98663.84
2024-04-24T10:30:21.756Z,98555.44
2024-04-24T10:32:48.994Z,98487.38
2024-04-24T10:35:17.264Z,98423.75
2024-04-24T10:37:48.431Z,98336.81
2024-04-24T10:40:18.092Z,98390.16
2024-04-24T10:42:45.685Z,98337.88
2024-04-24T10:45:19.381Z,98247.19
2024-04-24T10:47:49.002Z,98237.53
2024-04-24T10:50:17.163Z,98220.28
2024-04-24T10:52:53.719Z,98194.78
2024-04-24T10:55:21.094Z,98211.31
2024-04-24T10:57:52.792Z,98229.84
2024-04-24T11:00:22.059Z,98210.34
2024-04-24T11:03:00.583Z,98205.25
2024-04-24T11:05:36.571Z,98242.50
2024-04-24T11:08:06.243Z,98234.75
2024-04-24T11:10:34.495Z,98110.72
2024-04-24T11:13:04.120Z,98140.19
2024-04-24T11:15:31.326Z,98199.91
2024-04-24T11:17:58.634Z,98256.78
2024-04-24T11:20:26.316Z,98215.41
2024-04-24T11:22:53.379Z,98156.63
2024-04-24T11:25:20.490Z,98144.78
2024-04-24T11:27:48.128Z,98135.41
2024-04-24T11:30:17.175Z,98045.59
2024-04-24T11:32:48.463Z,98114.38
2024-04-24T11:35:17.512Z,98064.50
2024-04-24T11:37:46.354Z,98099.81
2024-04-24T11:40:13.509Z,98054.88
2024-04-24T11:42:44.281Z,97994.13
2024-04-24T11:45:12.950Z,97955.94
2024-04-24T11:47:41.509Z,97933.13
2024-04-24T11:50:09.084Z,97957.16
2024-04-24T11:52:41.409Z,97966.78
2024-04-24T11:55:09.158Z,97997.72
2024-04-24T11:57:37.493Z,98068.16
2024-04-24T12:00:06.635Z,98101.94
2024-04-24T12:02:35.643Z,98128.00
2024-04-24T12:05:07.563Z,98143.06
2024-04-24T12:07:34.893Z,98191.41
2024-04-24T12:10:02.546Z,98229.44
2024-04-24T12:12:32.417Z,98263.56
2024-04-24T12:14:59.969Z,98302.78
2024-04-24T12:17:27.031Z,98324.25
2024-04-24T12:19:54.211Z,98333.28
2024-04-24T12:22:21.513Z,98338.84
2024-04-24T12:24:48.638Z,98310.19
2024-04-24T12:27:16.338Z,98265.50
2024-04-24T12:29:45.151Z,98185.97
2024-04-24T12:32:12.392Z,98226.03
2024-04-24T12:34:39.632Z,98210.97
2024-04-24T12:37:06.755Z,98237.34
2024-04-24T12:39:33.833Z,98252.66
2024-04-24T12:42:01.063Z,98312.34
2024-04-24T12:44:28.171Z,98329.44
2024-04-24T12:46:55.304Z,98361.28
2024-04-24T12:49:22.297Z,98375.09
2024-04-24T12:51:49.371Z,98373.63
2024-04-24T12:54:16.538Z,98366.38
2024-04-24T12:56:43.850Z,98367.13
2024-04-24T12:59:10.900Z,98368.84
2024-04-24T13:01:38.063Z,98374.31
2024-04-24T13:04:05.227Z,98391.03
2024-04-24T13:06:34.583Z,98401.72
2024-04-24T13:09:01.965Z,98379.91
2024-04-24T13:11:29.410Z,98397.13
2024-04-24T13:13:56.916Z,98397.00
2024-04-24T13:16:24.749Z,98386.31
2024-04-24T13:18:52.034Z,98390.59
2024-04-24T13:21:19.821Z,98365.03
2024-04-24T13:23:46.764Z,98358.69
2024-04-24T13:26:13.910Z,98348.31
2024-04-24T13:28:40.922Z,98331.06
2024-04-24T13:31:08.185Z,98325.78
2024-04-24T13:33:35.542Z,98346.94
2024-04-24T13:36:02.813Z,98356.88
2024-04-24T13:38:29.909Z,98377.28
2024-04-24T13:41:04.493Z,98413.91
2024-04-24T13:43:31.502Z,98426.31
2024-04-24T13:45:58.488Z,98485.72
2024-04-24T13:48:27.335Z,98553.56
2024-04-24T13:50:55.880Z,98581.34
2024-04-24T13:53:22.921Z,98597.38
2024-04-24T13:55:50.560Z,98630.06
2024-04-24T13:58:17.655Z,98640.03
2024-04-24T14:00:44.823Z,98675.31
2024-04-24T14:03:12.008Z,98702.31
2024-04-24T14:05:41.052Z,98707.28
2024-04-24T14:08:08.710Z,98700.31
2024-04-24T14:10:35.850Z,98689.97
2024-04-24T14:13:03.036Z,98657.59
2024-04-24T14:15:30.221Z,98619.81
2024-04-24T14:17:57.673Z,98630.66
2024-04-24T14:20:24.775Z,98656.78
2024-04-24T14:22:51.829Z,98607.72
2024-04-24T14:25:18.996Z,98573.66
2024-04-24T14:27:46.628Z,98546.22
2024-04-24T14:30:13.840Z,98550.25
2024-04-24T14:32:41.100Z,98532.00
2024-04-24T14:35:08.568Z,98542.47
2024-04-24T14:37:35.813Z,98527.19
2024-04-24T14:40:03.844Z,98522.59
2024-04-24T14:42:31.822Z,98566.63
2024-04-24T14:44:58.799Z,98584.38
2024-04-24T14:47:26.360Z,98624.09
2024-04-24T14:49:53.509Z,98658.22
2024-04-24T14:52:21.435Z,98714.78
2024-04-24T14:54:49.305Z,98747.84
2024-04-24T14:57:16.624Z,98770.09
2024-04-24T14:59:44.470Z,98794.72
2024-04-24T15:02:28.102Z,98837.63
2024-04-24T15:04:55.065Z,98857.56
2024-04-24T15:07:22.209Z,98883.06
2024-04-24T15:09:49.186Z,98918.19
2024-04-24T15:12:16.423Z,98932.41
2024-04-24T15:14:43.570Z,98947.41
2024-04-24T15:17:10.599Z,98962.47
2024-04-24T15:19:39.526Z,98976.84
2024-04-24T15:22:08.107Z,99003.47
2024-04-24T15:24:35.956Z,99020.28
2024-04-24T15:27:02.948Z,99039.56
2024-04-24T15:29:30.007Z,99055.41
2024-04-24T15:31:57.106Z,99071.28
2024-04-24T15:34:25.193Z,99082.81
2024-04-24T15:36:52.817Z,99095.19
2024-04-24T15:39:19.792Z,99107.41
2024-04-24T15:41:46.842Z,99120.44
2024-04-24T15:44:14.457Z,99125.81
2024-04-24T15:46:41.494Z,99137.25
2024-04-24T15:49:08.526Z,99134.88
2024-04-24T15:51:35.530Z,99147.16
2024-04-24T15:54:03.310Z,99155.13
2024-04-24T15:56:30.386Z,99164.94
2024-04-24T15:58:57.646Z,99176.38
2024-04-24T16:01:25.408Z,99193.16
2024-04-24T16:03:52.451Z,99205.50
2024-04-24T16:06:19.835Z,99223.94
2024-04-24T16:08:46.992Z,99237.09
2024-04-24T16:11:14.162Z,99252.88
2024-04-24T16:13:41.416Z,99256.56
2024-04-24T16:16:08.534Z,99279.22
2024-04-24T16:18:42.619Z,99286.22
2024-04-24T16:21:13.130Z,99288.94
2024-04-24T16:23:41.444Z,99294.34
2024-04-24T16:26:09.088Z,99315.19
2024-04-24T16:28:36.864Z,99325.72
2024-04-24T16:31:04.036Z,99343.25
2024-04-24T16:33:31.215Z,99349.50
2024-04-24T16:35:59.815Z,99361.72
2024-04-24T16:38:27.013Z,99388.66
2024-04-24T16:40:54.080Z,99394.84
2024-04-24T16:43:21.076Z,99414.91
2024-04-24T16:45:48.114Z,99428.06
2024-04-24T16:48:16.347Z,99440.28
2024-04-24T16:50:43.613Z,99447.28
2024-04-24T16:53:10.732Z,99452.53
2024-04-24T16:55:37.755Z,99465.59
2024-04-24T16:58:05.009Z,99477.84
2024-04-24T17:00:32.455Z,99495.28
2024-04-24T17:02:59.840Z,99501.41
2024-04-24T17:05:27.024Z,99517.09
2024-04-24T17:07:54.060Z,99541.44
2024-04-24T17:10:21.144Z,99565.81
2024-04-24T17:12:48.408Z,99571.13
2024-04-24T17:15:15.482Z,99580.72
2024-04-24T17:17:42.713Z,99597.22
2024-04-24T17:20:10.147Z,99612.00
2024-04-24T17:22:37.232Z,99634.53
2024-04-24T17:25:04.899Z,99633.69
2024-04-24T17:27:31.956Z,99656.31
2024-04-24T17:29:59.232Z,99661.53
2024-04-24T17:32:29.218Z,99682.38
2024-04-24T17:34:56.347Z,99679.84
2024-04-24T17:37:23.491Z,99686.81
2024-04-24T17:39:50.459Z,99708.47
2024-04-24T17:42:17.438Z,99720.66
2024-04-24T17:44:44.554Z,99729.38
2024-04-24T17:47:12.023Z,99738.09
2024-04-24T17:49:39.181Z,99732.06
2024-04-24T17:52:06.497Z,99750.28
2024-04-24T17:54:35.494Z,99748.59
2024-04-24T17:57:02.633Z,99759.03
2024-04-24T17:59:29.765Z,99771.19
2024-04-24T18:01:56.857Z,99779.00
2024-04-24T18:04:23.872Z,99786.84
2024-04-24T18:06:50.845Z,99793.78
2024-04-24T18:09:18.315Z,99810.25
2024-04-24T18:11:45.458Z,99808.56
2024-04-24T18:14:12.568Z,99818.09
2024-04-24T18:16:39.583Z,99829.34
2024-04-24T18:19:06.908Z,99833.69
2024-04-24T18:21:33.916Z,99836.31
2024-04-24T18:24:01.311Z,99832.84
2024-04-24T18:26:28.634Z,99852.81
2024-04-24T18:28:55.622Z,99864.06
2024-04-24T18:31:22.705Z,99871.00
2024-04-24T18:33:49.817Z,99880.53
2024-04-24T18:36:16.897Z,99888.34
2024-04-24T18:38:44.017Z,99901.34
2024-04-24T18:41:12.728Z,99897.88
2024-04-24T18:43:42.982Z,99913.47
2024-04-24T18:46:10.721Z,99918.66
2024-04-24T18:48:37.821Z,99930.78
2024-04-24T18:51:05.103Z,99931.66
2024-04-24T18:53:37.652Z,99936.00
2024-04-24T18:56:07.943Z,99946.41
2024-04-24T18:58:35.109Z,99944.66
2024-04-24T19:01:02.550Z,99954.19
2024-04-24T19:03:29.764Z,99965.44
2024-04-24T19:05:56.813Z,99974.13
2024-04-24T19:08:23.924Z,99962.88
2024-04-24T19:10:56.488Z,99981.06
2024-04-24T19:13:24.933Z,99982.81
2024-04-24T19:15:52.239Z,99982.81
2024-04-24T19:18:21.326Z,99987.13
2024-04-24T19:20:48.439Z,99996.66
2024-04-24T19:23:15.474Z,99992.31
2024-04-24T19:25:42.550Z,99988.00
2024-04-24T19:28:12.945Z,99989.72
2024-04-24T19:30:40.323Z,99972.41
2024-04-24T19:33:09.895Z,99973.28
2024-04-24T19:35:37.394Z,99970.69
2024-04-24T19:38:04.874Z,99976.72
2024-04-24T19:40:34.535Z,99956.78
2024-04-24T19:43:03.206Z,99962.88
2024-04-24T19:45:31.039Z,99963.72
2024-04-24T19:47:58.137Z,99967.19
2024-04-24T19:50:25.272Z,99946.41
2024-04-24T19:52:52.478Z,99963.72
2024-04-24T19:55:19.478Z,99958.53
2024-04-24T19:57:46.522Z,99952.50
2024-04-24T20:00:14.078Z,99948.16
2024-04-24T20:02:44.388Z,99946.41
2024-04-24T20:05:11.506Z,99946.41
2024-04-24T20:07:42.391Z,99942.94
2024-04-24T20:10:12.115Z,99931.66
2024-04-24T20:12:39.101Z,99911.78
2024-04-24T20:15:10.004Z,99911.78
2024-04-24T20:17:37.302Z,99899.66
2024-04-24T20:20:05.340Z,99897.94
2024-04-24T20:22:35.698Z,99880.63
2024-04-24T20:25:02.889Z,99858.13
2024-04-24T20:27:30.847Z,99860.72
2024-04-24T20:30:01.764Z,99858.13
2024-04-24T20:32:32.308Z,99850.34
2024-04-24T20:34:59.630Z,99850.34
2024-04-24T20:37:26.669Z,99831.31
2024-04-24T20:39:53.712Z,99833.03
2024-04-24T20:42:20.750Z,99816.59
2024-04-24T20:44:47.750Z,99814.84
2024-04-24T20:47:14.917Z,99805.34
2024-04-24T20:49:42.053Z,99799.31
2024-04-24T20:52:09.262Z,99788.03
2024-04-24T20:54:38.003Z,99786.28
2024-04-24T20:57:05.081Z,99783.75
2024-04-24T20:59:32.220Z,99769.91
2024-04-24T21:01:59.229Z,99773.38
2024-04-24T21:04:26.289Z,99760.41
2024-04-24T21:06:53.365Z,99759.56
2024-04-24T21:09:20.414Z,99770.84
2024-04-24T21:11:47.525Z,99753.53
2024-04-24T21:14:14.630Z,99747.47
2024-04-24T21:16:41.833Z,99744.88
2024-04-24T21:19:09.622Z,99740.53
2024-04-24T21:21:36.794Z,99738.84
2024-04-24T21:24:03.951Z,99731.97
2024-04-24T21:26:32.378Z,99746.69
2024-04-24T21:28:59.472Z,99751.06
2024-04-24T21:31:26.556Z,99738.97
2024-04-24T21:33:53.750Z,99745.03
2024-04-24T21:36:20.820Z,99710.44
2024-04-24T21:38:47.988Z,99700.97
2024-04-24T21:41:23.031Z,99702.66
2024-04-24T21:43:51.160Z,99673.28
2024-04-24T21:46:21.512Z,99662.91
2024-04-24T21:48:48.715Z,99645.66
2024-04-24T21:51:15.884Z,99634.41
2024-04-24T21:53:42.952Z,99603.28
2024-04-24T21:56:10.316Z,99579.03
2024-04-24T21:58:37.380Z,99568.69
2024-04-24T22:01:04.708Z,99534.09
2024-04-24T22:03:33.397Z,99515.09
2024-04-24T22:06:02.289Z,99486.56
2024-04-24T22:08:29.339Z,99467.56
2024-04-24T22:10:56.359Z,99452.03
2024-04-24T22:13:23.424Z,99414.00
2024-04-24T22:15:50.478Z,99375.97
2024-04-24T22:18:17.732Z,99331.03
2024-04-24T22:20:44.783Z,99306.84
2024-04-24T22:23:12.024Z,99269.72
2024-04-24T22:25:39.099Z,99232.59
2024-04-24T22:28:06.510Z,99192.88
2024-04-24T22:30:33.539Z,99154.09
2024-04-24T22:33:00.625Z,99115.22
2024-04-24T22:35:28.762Z,99091.91
2024-04-24T22:37:55.828Z,99065.09
2024-04-24T22:40:22.777Z,99058.16
2024-04-24T22:42:49.849Z,99060.78
2024-04-24T22:45:16.918Z,99041.94
2024-04-24T22:47:44.931Z,99037.75
2024-04-24T22:50:12.109Z,99025.72
2024-04-24T22:52:39.207Z,99020.59
2024-04-24T22:55:06.316Z,99009.38
2024-04-24T22:57:33.313Z,99004.16
2024-04-24T23:00:00.437Z,99003.25
2024-04-24T23:02:27.741Z,98985.94
2024-04-24T23:04:54.979Z,98979.00
2024-04-24T23:07:22.061Z,98986.75
2024-04-24T23:09:49.163Z,98980.63
2024-04-24T23:12:16.173Z,98972.81
2024-04-24T23:14:43.293Z,98975.31
2024-04-24T23:17:10.463Z,98970.94
2024-04-24T23:19:38.177Z,98970.00
2024-04-24T23:22:05.212Z,98968.22
2024-04-24T23:24:32.180Z,98965.50
2024-04-24T23:26:59.681Z,98955.13
2024-04-24T23:29:27.375Z,98956.75
2024-04-24T23:31:54.339Z,98945.47
2024-04-24T23:34:21.374Z,98945.41
2024-04-24T23:36:49.147Z,98938.44
2024-04-24T23:39:16.165Z,98938.41
2024-04-24T23:41:43.177Z,98929.75
2024-04-24T23:44:10.133Z,98933.16
2024-04-24T23:46:37.278Z,98939.19
2024-04-24T23:49:04.818Z,98915.81
2024-04-24T23:51:32.687Z,98912.38
2024-04-24T23:53:59.719Z,98917.56
2024-04-24T23:56:26.736Z,98911.47
2024-04-24T23:58:53.788Z,98912.38
